avis per tempestes more information blitzortung!


avis per Pluja more information rain snow radar


Visita la nostra xarxa de llocs de meteo:

Template documentation
and downloads

And another site



Thunderstorms From: 18-09-2018 20:00 Until: 19-09-2018 10:59 warning for: Thunderstorms Level: Yellow info button
Rain From: 18-09-2018 20:00 Until: 19-09-2018 10:59 warning for: Rain Level: Yellow info button

Pagina Historial Weather Underground text

Diari Resum Juny 15, 2017 Unitats:  Imperial    Mètric   Tant
« Previous Dia
SegĂźent Dia »
Diari Setmana Mensual Anual Personalitzada
  Maxima: Minima: Media:
Temperatura: TemperatureC °F 19.6 °F 30.5 °F
Punt de rosada: DewpointC °F 4.3 °F 8 °F
Humitat: Humidity % 15 % 26 %
Wind Speed: WindSpeedKMH mph 0.0 mph 6.6 mph
RĂ fegues de vent: WindSpeedGustKMH mph - -
Vent:- - South
Pression baro: PressurehPa in 1011.7 in -
Precipitacions: 0.0 in    
Historical Graphs
 
 
Dades de taula per Juny 15, 2017
Temps Temperatura Punt de rosada Pression baro Vent Wind Speed RĂ fegues de vent Humitat Rainfall Rate (Hourly)
TemperatureC °F DewpointC °F PressurehPa in Calm     Humidity % HourlyPrecipMM in
00:04 24.9 °F 6.1 °F 1012.8 in Calm     30 % 0.0 in
00:05 20.0 °F 7.7 °F 1011.7 in Calm   3.2 mph 45 % 0.0 in
00:15 20.1 °F 8.1 °F 1011.7 in Calm     46 % 0.0 in
00:25 20.1 °F 8.4 °F 1012.8 in Calm     47 % 0.0 in
00:35 20.1 °F 8.4 °F 1012.8 in Calm     47 % 0.0 in
00:45 20.3 °F 8.6 °F 1012.8 in WNW 1.6 mph   47 % 0.0 in
00:55 20.4 °F 8.7 °F 1012.8 in NW 1.6 mph 1.6 mph 47 % 0.0 in
01:05 20.2 °F 8.8 °F 1012.8 in North 1.6 mph 3.2 mph 48 % 0.0 in
01:15 19.9 °F 8.9 °F 1012.8 in Calm     49 % 0.0 in
01:25 19.7 °F 8.7 °F 1012.8 in Calm     49 % 0.0 in
01:35 19.7 °F 8.7 °F 1012.8 in Calm     49 % 0.0 in
01:45 19.6 °F 8.6 °F 1012.8 in Calm     49 % 0.0 in
01:55 19.7 °F 8.7 °F 1013.8 in WNW 1.6 mph 1.6 mph 49 % 0.0 in
02:05 19.9 °F 9.2 °F 1013.8 in Calm   3.2 mph 50 % 0.0 in
02:15 20.0 °F 9.3 °F 1013.8 in Calm   1.6 mph 50 % 0.0 in
02:25 20.3 °F 9.6 °F 1013.8 in Calm   3.2 mph 50 % 0.0 in
02:35 20.4 °F 9.6 °F 1013.8 in NE 1.6 mph 4.8 mph 50 % 0.0 in
02:45 20.5 °F 9.4 °F 1013.8 in NE 3.2 mph 3.2 mph 49 % 0.0 in
02:55 20.6 °F 9.5 °F 1013.8 in SW 1.6 mph 3.2 mph 49 % 0.0 in
03:05 20.9 °F 9.8 °F 1013.8 in SW 1.6 mph 3.2 mph 49 % 0.0 in
03:15 21.5 °F 10.0 °F 1013.8 in Calm   3.2 mph 48 % 0.0 in
03:25 21.9 °F 10.1 °F 1012.8 in SW 3.2 mph 3.2 mph 47 % 0.0 in
03:35 22.5 °F 10.6 °F 1013.8 in SW 1.6 mph 1.6 mph 47 % 0.0 in
03:45 23.0 °F 10.8 °F 1013.8 in SW 1.6 mph 3.2 mph 46 % 0.0 in
03:55 23.5 °F 11.2 °F 1013.8 in WSW 1.6 mph 3.2 mph 46 % 0.0 in
04:05 24.0 °F 11.3 °F 1014.8 in SW 1.6 mph 3.2 mph 45 % 0.0 in
04:15 24.8 °F 11.7 °F 1014.8 in SW 1.6 mph 3.2 mph 44 % 0.0 in
04:25 25.6 °F 12.1 °F 1014.8 in WSW 1.6 mph 3.2 mph 43 % 0.0 in
04:35 27.0 °F 12.6 °F 1014.8 in NNW 1.6 mph 3.2 mph 41 % 0.0 in
04:45 27.1 °F 12.7 °F 1014.8 in WSW 1.6 mph 1.6 mph 41 % 0.0 in
04:55 27.6 °F 12.8 °F 1014.8 in South 1.6 mph 3.2 mph 40 % 0.0 in
05:05 28.2 °F 12.9 °F 1014.8 in South 1.6 mph 3.2 mph 39 % 0.0 in
05:15 28.8 °F 13.4 °F 1014.8 in SW 1.6 mph 3.2 mph 39 % 0.0 in
05:25 29.4 °F 13.2 °F 1014.8 in Calm   3.2 mph 37 % 0.0 in
05:35 29.6 °F 12.9 °F 1013.8 in SSW 1.6 mph 6.4 mph 36 % 0.0 in
05:45 29.7 °F 12.2 °F 1013.8 in SSW 3.2 mph 4.8 mph 34 % 0.0 in
10:46 30.2 °F 12.6 °F 1013.8 in SSE 5.6 mph 5.6 mph 34 % 0.0 in
10:51 30.5 °F 12.4 °F 1013.8 in East 5.6 mph 5.6 mph 33 % 0.0 in
10:56 30.4 °F 11.8 °F 1013.8 in SE 7.4 mph 7.4 mph 32 % 0.0 in
11:01 30.3 °F 12.2 °F 1013.8 in SE 6.1 mph 6.1 mph 33 % 0.0 in
11:06 30.2 °F 11.7 °F 1013.8 in ESE 7.4 mph 7.4 mph 32 % 0.0 in
11:11 30.3 °F 11.8 °F 1013.8 in East 5.6 mph 5.6 mph 32 % 0.0 in
11:16 30.7 °F 12.1 °F 1013.8 in North 2.3 mph 2.3 mph 32 % 0.0 in
11:21 30.8 °F 12.2 °F 1013.8 in NNE 3.7 mph 3.7 mph 32 % 0.0 in
11:26 31.2 °F 12.1 °F 1013.8 in ENE 3.7 mph 3.7 mph 31 % 0.0 in
11:31 31.3 °F 11.7 °F 1014.8 in SSE 5.6 mph 5.6 mph 30 % 0.0 in
11:33 31.5 °F 11.8 °F 1014.8 in ESE 4.2 mph 4.2 mph 30 % 0.0 in
11:38 31.8 °F 11.6 °F 1014.8 in ENE 5.6 mph 5.6 mph 29 % 0.0 in
11:43 31.6 °F 11.4 °F 1014.8 in East 5.6 mph 5.6 mph 29 % 0.0 in
11:48 31.4 °F 11.2 °F 1014.8 in ESE 9.3 mph 9.3 mph 29 % 0.0 in
11:53 31.8 °F 11.6 °F 1014.8 in ESE 4.7 mph 4.7 mph 29 % 0.0 in
11:58 32.2 °F 11.4 °F 1014.8 in NNE 5.6 mph 5.6 mph 28 % 0.0 in
12:03 32.3 °F 10.9 °F 1014.8 in NNE 7.4 mph 7.4 mph 27 % 0.0 in
12:08 32.8 °F 11.3 °F 1014.8 in SE 3.9 mph 3.9 mph 27 % 0.0 in
12:13 32.7 °F 10.7 °F 1014.8 in SE 7.6 mph 7.6 mph 26 % 0.0 in
12:18 32.9 °F 10.8 °F 1013.8 in East 3.7 mph 3.7 mph 26 % 0.0 in
12:23 33.4 °F 10.1 °F 1013.8 in South 7.4 mph 7.4 mph 24 % 0.0 in
12:28 32.8 °F 10.2 °F 1013.8 in NNE 9.3 mph 9.3 mph 25 % 0.0 in
12:33 33.2 °F 9.9 °F 1013.8 in ENE 7.4 mph 7.4 mph 24 % 0.0 in
12:38 33.2 °F 9.9 °F 1013.8 in ENE 3.7 mph 3.7 mph 24 % 0.0 in
12:43 33.6 °F 10.2 °F 1013.8 in West 9.3 mph 9.3 mph 24 % 0.0 in
12:48 33.5 °F 8.9 °F 1013.8 in East 13.0 mph 13.0 mph 22 % 0.0 in
12:53 33.8 °F 9.1 °F 1013.8 in East 9.3 mph 9.3 mph 22 % 0.0 in
12:58 33.9 °F 9.2 °F 1013.8 in ENE 7.6 mph 7.6 mph 22 % 0.0 in
13:03 33.8 °F 9.1 °F 1013.8 in ESE 11.1 mph 11.1 mph 22 % 0.0 in
13:08 33.8 °F 9.1 °F 1013.8 in ENE 9.3 mph 9.3 mph 22 % 0.0 in
13:13 33.8 °F 8.4 °F 1013.8 in ESE 9.3 mph 9.3 mph 21 % 0.0 in
13:18 33.7 °F 8.3 °F 1013.8 in ENE 9.3 mph 9.3 mph 21 % 0.0 in
13:23 34.1 °F 8.7 °F 1013.8 in ENE 10.8 mph 10.8 mph 21 % 0.0 in
13:28 34.2 °F 8.8 °F 1013.8 in ESE 9.3 mph 9.3 mph 21 % 0.0 in
13:33 34.0 °F 7.9 °F 1013.8 in ESE 13.0 mph 13.0 mph 20 % 0.0 in
13:38 33.8 °F 7.7 °F 1013.8 in ESE 13.0 mph 13.0 mph 20 % 0.0 in
13:43 33.9 °F 8.5 °F 1013.8 in NNE 14.8 mph 14.8 mph 21 % 0.0 in
13:48 34.2 °F 8.8 °F 1013.8 in ENE 13.0 mph 13.0 mph 21 % 0.0 in
13:53 33.9 °F 7.1 °F 1013.8 in ESE 16.7 mph 16.7 mph 19 % 0.0 in
13:58 34.0 °F 7.9 °F 1013.8 in NNE 11.1 mph 11.1 mph 20 % 0.0 in
14:03 34.0 °F 7.1 °F 1013.8 in East 14.0 mph 14.0 mph 19 % 0.0 in
14:08 34.0 °F 7.1 °F 1013.8 in ESE 15.6 mph 15.6 mph 19 % 0.0 in
14:13 34.2 °F 7.3 °F 1013.8 in ESE 16.7 mph 16.7 mph 19 % 0.0 in
14:18 34.4 °F 6.7 °F 1013.8 in ESE 18.5 mph 18.5 mph 18 % 0.0 in
14:23 34.5 °F 7.5 °F 1013.8 in ESE 12.2 mph 12.2 mph 19 % 0.0 in
14:25 34.5 °F 7.5 °F 1013.8 in East 13.0 mph 13.0 mph 19 % 0.0 in
14:30 34.8 °F 7.0 °F 1013.8 in ESE 13.0 mph 13.0 mph 18 % 0.0 in
14:35 34.5 °F 6.7 °F 1013.8 in ESE 14.8 mph 14.8 mph 18 % 0.0 in
14:40 34.2 °F 5.7 °F 1013.8 in ENE 13.7 mph 13.7 mph 17 % 0.0 in
14:45 34.4 °F 6.7 °F 1013.8 in ENE 13.0 mph 13.0 mph 18 % 0.0 in
14:50 34.5 °F 5.9 °F 1013.8 in SE 13.0 mph 13.0 mph 17 % 0.0 in
14:55 34.5 °F 5.1 °F 1013.8 in ESE 19.5 mph 19.5 mph 16 % 0.0 in
15:00 34.5 °F 5.9 °F 1013.8 in East 9.3 mph 9.3 mph 17 % 0.0 in
15:05 34.4 °F 4.9 °F 1013.8 in ESE 11.1 mph 11.1 mph 16 % 0.0 in
15:10 34.7 °F 6.1 °F 1013.8 in NNW 18.5 mph 18.5 mph 17 % 0.0 in
15:15 34.8 °F 6.2 °F 1013.8 in SE 16.7 mph 16.7 mph 17 % 0.0 in
15:20 35.2 °F 4.7 °F 1013.8 in SE 9.3 mph 9.3 mph 15 % 0.0 in
15:25 34.7 °F 5.2 °F 1013.8 in ESE 16.7 mph 16.7 mph 16 % 0.0 in
15:30 34.7 °F 5.2 °F 1013.8 in East 17.2 mph 17.2 mph 16 % 0.0 in
15:35 34.5 °F 5.1 °F 1013.8 in South 16.7 mph 16.7 mph 16 % 0.0 in
15:40 34.7 °F 4.3 °F 1013.8 in ESE 16.7 mph 16.7 mph 15 % 0.0 in
15:45 36.1 °F 7.2 °F 1013.8 in WSW 6.4 mph 6.4 mph 17 % 0.0 in
15:50 36.4 °F 7.4 °F 1013.8 in WSW 5.6 mph 5.6 mph 17 % 0.0 in
15:55 37.1 °F 8.8 °F 1013.8 in SSW 7.4 mph 7.4 mph 18 % 0.0 in
16:00 37.3 °F 8.2 °F 1013.8 in West 4.7 mph 4.7 mph 17 % 0.0 in
16:05 36.9 °F 7.8 °F 1013.8 in WNW 9.3 mph 9.3 mph 17 % 0.0 in
16:10 37.2 °F 8.1 °F 1013.8 in SW 5.6 mph 5.6 mph 17 % 0.0 in
16:15 36.8 °F 7.8 °F 1013.8 in SW 13.0 mph 13.0 mph 17 % 0.0 in
16:20 36.7 °F 7.7 °F 1013.8 in South 9.3 mph 9.3 mph 17 % 0.0 in
16:25 37.0 °F 7.9 °F 1013.8 in SSE 9.3 mph 9.3 mph 17 % 0.0 in
16:30 36.7 °F 6.8 °F 1013.8 in SE 9.3 mph 9.3 mph 16 % 0.0 in
16:35 37.1 °F 7.1 °F 1013.8 in SSE 5.6 mph 5.6 mph 16 % 0.0 in
16:40 37.5 °F 7.4 °F 1013.8 in South 3.7 mph 3.7 mph 16 % 0.0 in
16:45 37.2 °F 7.2 °F 1012.8 in SSW 6.9 mph 6.9 mph 16 % 0.0 in
16:50 37.3 °F 7.3 °F 1012.8 in SW 9.3 mph 9.3 mph 16 % 0.0 in
16:55 36.9 °F 6.9 °F 1012.8 in WSW 12.2 mph 12.2 mph 16 % 0.0 in
17:00 37.1 °F 7.1 °F 1013.8 in SW 9.3 mph 9.3 mph 16 % 0.0 in
17:05 36.9 °F 6.9 °F 1013.8 in SSW 5.8 mph 5.8 mph 16 % 0.0 in
17:10 37.1 °F 7.1 °F 1013.8 in South 7.4 mph 7.4 mph 16 % 0.0 in
17:15 37.5 °F 7.4 °F 1014.8 in South 7.4 mph 7.4 mph 16 % 0.0 in
17:20 36.4 °F 5.6 °F 1014.8 in SW 9.3 mph 9.3 mph 15 % 0.0 in
17:25 36.4 °F 5.6 °F 1014.8 in SSW 5.6 mph 5.6 mph 15 % 0.0 in
17:30 36.1 °F 5.4 °F 1013.8 in SW 9.0 mph 9.0 mph 15 % 0.0 in
17:35 35.8 °F 5.1 °F 1013.8 in South 3.7 mph 3.7 mph 15 % 0.0 in
17:40 36.0 °F 5.3 °F 1013.8 in SW 9.3 mph 9.3 mph 15 % 0.0 in
17:45 36.1 °F 5.4 °F 1013.8 in SSE 9.3 mph 9.3 mph 15 % 0.0 in
17:50 35.8 °F 5.1 °F 1013.8 in NNE 7.4 mph 7.4 mph 15 % 0.0 in
17:55 35.6 °F 5.0 °F 1013.8 in SSE 14.8 mph 14.8 mph 15 % 0.0 in
18:00 35.8 °F 6.1 °F 1012.8 in West 9.3 mph 9.3 mph 16 % 0.0 in
18:05 35.8 °F 6.1 °F 1012.8 in South 3.9 mph 3.9 mph 16 % 0.0 in
18:07 35.9 °F 6.2 °F 1012.8 in South 4.7 mph 4.7 mph 16 % 0.0 in
18:12 35.2 °F 5.6 °F 1012.8 in SW 9.3 mph 9.3 mph 16 % 0.0 in
18:17 34.8 °F 6.2 °F 1013.8 in SSW 5.6 mph 5.6 mph 17 % 0.0 in
18:22 34.6 °F 6.0 °F 1013.8 in West 6.4 mph 6.4 mph 17 % 0.0 in
18:27 34.7 °F 6.1 °F 1013.8 in WSW 11.1 mph 11.1 mph 17 % 0.0 in
18:32 34.5 °F 5.9 °F 1013.8 in WSW 9.5 mph 9.5 mph 17 % 0.0 in
18:37 34.2 °F 5.7 °F 1013.8 in SW 9.3 mph 9.3 mph 17 % 0.0 in
18:42 34.2 °F 5.7 °F 1013.8 in WSW 9.3 mph 9.3 mph 17 % 0.0 in
18:47 33.9 °F 5.4 °F 1013.8 in WSW 9.3 mph 9.3 mph 17 % 0.0 in
18:52 33.5 °F 5.1 °F 1013.8 in West 13.0 mph 13.0 mph 17 % 0.0 in
18:57 33.3 °F 4.9 °F 1013.8 in WSW 11.1 mph 11.1 mph 17 % 0.0 in
19:02 33.1 °F 4.8 °F 1013.8 in West 11.1 mph 11.1 mph 17 % 0.0 in
19:07 32.9 °F 4.6 °F 1013.8 in SW 13.0 mph 13.0 mph 17 % 0.0 in
19:12 32.6 °F 5.2 °F 1013.8 in SW 13.0 mph 13.0 mph 18 % 0.0 in
19:17 32.5 °F 5.1 °F 1013.8 in WSW 11.1 mph 11.1 mph 18 % 0.0 in
19:22 32.4 °F 5.1 °F 1013.8 in West 9.3 mph 9.3 mph 18 % 0.0 in
19:27 32.2 °F 4.9 °F 1013.8 in West 7.4 mph 7.4 mph 18 % 0.0 in
19:32 32.1 °F 4.8 °F 1013.8 in SW 11.1 mph 11.1 mph 18 % 0.0 in
19:37 32.1 °F 4.8 °F 1013.8 in SW 7.4 mph 7.4 mph 18 % 0.0 in
19:42 32.0 °F 4.7 °F 1013.8 in WSW 9.3 mph 9.3 mph 18 % 0.0 in
19:47 32.0 °F 5.5 °F 1013.8 in SW 9.3 mph 9.3 mph 19 % 0.0 in
19:52 31.8 °F 6.1 °F 1013.8 in SSW 9.3 mph 9.3 mph 20 % 0.0 in
19:57 31.6 °F 6.6 °F 1013.8 in SW 9.3 mph 9.3 mph 21 % 0.0 in
20:02 31.4 °F 6.4 °F 1013.8 in WSW 7.4 mph 7.4 mph 21 % 0.0 in
20:07 31.3 °F 7.1 °F 1013.8 in SW 5.6 mph 5.6 mph 22 % 0.0 in
20:12 31.1 °F 6.9 °F 1013.8 in SW 7.9 mph 7.9 mph 22 % 0.0 in
20:17 31.0 °F 6.8 °F 1013.8 in SW 7.6 mph 7.6 mph 22 % 0.0 in
20:22 30.9 °F 7.3 °F 1013.8 in SSW 7.4 mph 7.4 mph 23 % 0.0 in
20:27 30.6 °F 7.1 °F 1013.8 in WSW 11.1 mph 11.1 mph 23 % 0.0 in
20:32 30.5 °F 7.0 °F 1013.8 in WSW 5.6 mph 5.6 mph 23 % 0.0 in
20:37 30.3 °F 6.8 °F 1013.8 in SW 5.8 mph 5.8 mph 23 % 0.0 in
20:42 30.2 °F 6.8 °F 1013.8 in SSW 9.5 mph 9.5 mph 23 % 0.0 in
20:47 30.1 °F 6.7 °F 1014.8 in West 9.3 mph 9.3 mph 23 % 0.0 in
20:52 30.0 °F 7.2 °F 1014.8 in SW 7.6 mph 7.6 mph 24 % 0.0 in
20:57 29.8 °F 7.1 °F 1014.8 in SW 5.6 mph 5.6 mph 24 % 0.0 in
21:02 29.7 °F 7.6 °F 1014.8 in SW 5.8 mph 5.8 mph 25 % 0.0 in
21:07 29.5 °F 7.4 °F 1014.8 in SW 7.4 mph 7.4 mph 25 % 0.0 in
21:12 29.3 °F 7.2 °F 1014.8 in WSW 7.4 mph 7.4 mph 25 % 0.0 in
21:17 29.2 °F 7.2 °F 1014.8 in SW 3.7 mph 3.7 mph 25 % 0.0 in
21:22 29.1 °F 7.1 °F 1014.8 in SW 5.6 mph 5.6 mph 25 % 0.0 in
21:27 29.0 °F 7.6 °F 1014.8 in WSW 2.3 mph 2.3 mph 26 % 0.0 in
21:32 28.9 °F 7.4 °F 1014.8 in SW 3.7 mph 3.7 mph 26 % 0.0 in
21:37 28.8 °F 7.9 °F 1014.8 in SW 1.9 mph 1.9 mph 27 % 0.0 in
21:42 28.7 °F 7.8 °F 1014.8 in Calm     27 % 0.0 in
21:47 28.6 °F 7.8 °F 1015.8 in Calm     27 % 0.0 in
21:52 28.5 °F 7.7 °F 1015.8 in WSW 1.9 mph 1.9 mph 27 % 0.0 in
21:57 28.4 °F 8.1 °F 1015.8 in West 1.9 mph   28 % 0.0 in
22:02 28.4 °F 8.1 °F 1015.8 in Calm     28 % 0.0 in
22:07 28.3 °F 8.1 °F 1015.8 in NE 3.7 mph 3.7 mph 28 % 0.0 in
22:12 28.2 °F 7.9 °F 1015.8 in NE 3.7 mph 3.7 mph 28 % 0.0 in
22:17 28.0 °F 7.8 °F 1015.8 in NE 2.3 mph 2.3 mph 28 % 0.0 in
22:22 28.0 °F 7.8 °F 1015.8 in NE 1.9 mph 1.9 mph 28 % 0.0 in
22:27 28.0 °F 7.8 °F 1015.8 in Calm     28 % 0.0 in
22:32 27.4 °F 7.3 °F 1015.8 in SW 5.6 mph 5.6 mph 28 % 0.0 in
22:37 26.8 °F 7.3 °F 1015.8 in SW 3.7 mph 3.7 mph 29 % 0.0 in
22:42 26.8 °F 7.3 °F 1015.8 in SW 3.7 mph 3.7 mph 29 % 0.0 in
22:47 26.8 °F 7.8 °F 1015.8 in SW 3.7 mph 3.7 mph 30 % 0.0 in
22:52 26.8 °F 7.8 °F 1015.8 in SW 1.9 mph   30 % 0.0 in
22:57 26.8 °F 7.8 °F 1015.8 in Calm     30 % 0.0 in
23:02 26.8 °F 8.3 °F 1015.8 in Calm     31 % 0.0 in
23:07 26.8 °F 8.3 °F 1015.8 in Calm     31 % 0.0 in
23:12 26.9 °F 8.3 °F 1015.8 in West 2.3 mph 2.3 mph 31 % 0.0 in
23:17 26.8 °F 8.3 °F 1015.8 in Calm     31 % 0.0 in
23:22 26.7 °F 8.2 °F 1015.8 in Calm     31 % 0.0 in
23:28 26.7 °F 8.6 °F 1015.8 in Calm     32 % 0.0 in
23:33 26.6 °F 8.6 °F 1015.8 in West 1.9 mph   32 % 0.0 in
23:38 26.6 °F 8.6 °F 1015.8 in SW 4.2 mph 4.2 mph 32 % 0.0 in
23:43 26.3 °F 8.3 °F 1015.8 in SW 3.7 mph 3.7 mph 32 % 0.0 in
23:48 26.2 °F 8.2 °F 1015.8 in SW 5.6 mph 5.6 mph 32 % 0.0 in
23:53 26.0 °F 8.5 °F 1015.8 in SW 3.7 mph 3.7 mph 33 % 0.0 in
23:58 26.0 °F 8.5 °F 1015.8 in WSW 3.7 mph 3.7 mph 33 % 0.0 in
Meteo Sesrovires
Elogis d' Weather Underground - 1.5 mb

Guio original per  Jim McMurry - jmcmurry@mwt.net Adaptat per a la plantilla per  Wim van der Kuil - Leuven-Template.eu

Trobareu la nostra informacio del temps tambe a:

Weather Underground

AWEKAS